Latest Weather Observations for Omeo

IDV60801

Issued at 5:02 pm EST Saturday 29 August 2015 (issued every 30 minutes, with the page automatically refreshed every 10 minutes)

About weather observations | Map of weather stations | Latest weather observations for VIC | Other Formats
Station Details ID: 083090 Name: OMEO Lat: -37.10 Lon: 147.60 Height: 689.8 m
Data from the previous 72 hours. | See also: Recent months at Omeo
Date/Time
EST
Temp
°C
App
Temp
°C
Dew
Point
Rel
Hum
%
Delta-T
°C
Wind Press
QNH
hPa
Press
MSL
hPa
Rain
since 9 am
mm
Dir
 
Spd
km/h
Gust
km/h
Spd
kts
Gust
kts
29/05:00pm 7.9 5.1 3.0 71 2.2 S 7 15 4 8 1020.8 1021.7 0.0
29/04:30pm 7.3 4.1 3.2 75 1.8 S 9 17 5 9 1020.8 1021.7 0.0
29/04:00pm 8.3 5.1 3.0 69 2.3 S 9 20 5 11 1020.6 1021.5 0.0
29/03:30pm 8.5 4.4 2.1 64 2.8 S 13 28 7 15 1020.4 1021.3 0.0
29/03:00pm 9.0 4.9 2.1 62 3.0 S 13 20 7 11 1020.3 1021.1 0.0
29/02:30pm 9.2 5.1 2.1 61 3.1 S 13 20 7 11 1020.4 1021.3 0.0
29/02:00pm 9.0 5.2 1.9 61 3.1 S 11 19 6 10 1020.4 1021.3 0.0
29/01:30pm 8.8 4.5 1.0 58 3.3 SSW 13 28 7 15 1020.6 1021.5 0.0
29/01:00pm 8.6 3.7 -0.4 53 3.7 WSW 15 28 8 15 1020.9 1021.8 0.0
29/12:30pm 8.6 4.6 0.6 57 3.4 S 11 19 6 10 1021.4 1022.2 0.0
29/12:00pm 8.0 4.3 0.0 57 3.3 WSW 9 15 5 8 1021.9 1022.8 0.0
29/11:30am 7.5 4.3 -0.5 57 3.2 NW 6 9 3 5 1022.0 1022.9 0.0
29/11:00am 6.7 3.7 -1.7 55 3.3 NW 4 9 2 5 1022.1 1023.0 0.0
29/10:30am 6.9 3.5 -0.5 59 3.0 S 7 13 4 7 1022.3 1023.2 0.0
29/10:00am 6.3 3.0 0.2 65 2.5 NE 7 11 4 6 1022.4 1023.3 0.0
29/09:30am 5.3 2.2 1.2 75 1.7 NW 7 11 4 6 1022.6 1023.5 0.0
29/09:00am 4.2 1.2 1.1 80 1.3 N 6 7 3 4 1022.6 1023.5 0.4
29/08:30am 3.4 1.5 0.8 83 1.0 CALM 0 0 0 0 1022.5 1023.4 0.4
29/08:00am 1.1 -0.9 0.1 93 0.4 CALM 0 6 0 3 1022.4 1023.3 0.2
29/07:30am -0.9 -3.1 -1.9 93 0.3 CALM 0 0 0 0 1022.3 1023.2 0.2
29/07:00am -1.2 -3.5 -2.2 93 0.3 CALM 0 2 0 1 1022.1 1023.0 0.2
29/06:30am -0.8 -3.0 -1.9 92 0.4 CALM 0 4 0 2 1022.0 1022.9 0.2
29/06:00am -0.5 -3.9 -1.9 90 0.5 WNW 6 6 3 3 1021.7 1022.6 0.2
29/05:30am -0.1 -2.7 -1.5 90 0.5 SSW 2 7 1 4 1022.2 1023.1 0.2
29/05:00am 0.7 -2.5 -0.6 91 0.5 SW 6 9 3 5 1022.1 1023.0 0.2
29/04:30am 0.8 -2.6 -0.5 91 0.5 SSE 7 11 4 6 1021.9 1022.8 0.2
29/04:00am 1.7 -1.3 0.5 92 0.5 SSW 6 11 3 6 1021.8 1022.7 0.2
29/03:30am 2.4 -1.1 1.5 94 0.4 SSW 9 15 5 8 1021.9 1022.8 0.2
29/03:00am 1.2 -2.5 0.2 93 0.4 S 9 13 5 7 1021.8 1022.7 0.2
29/02:30am 0.7 -2.5 -0.4 92 0.4 S 6 9 3 5 1022.0 1022.9 0.2
29/02:00am 1.1 -0.9 -0.4 90 0.6 CALM 0 6 0 3 1022.2 1023.1 0.2
29/01:30am 2.3 -0.7 1.0 91 0.5 WSW 6 9 3 5 1022.4 1023.3 0.2
29/01:00am 2.8 0.3 1.3 90 0.6 SSW 4 7 2 4 1022.4 1023.3 0.2
29/12:30am 3.6 1.9 2.1 90 0.6 CALM 0 0 0 0 1022.4 1023.3 0.2
29/12:00am 4.2 2.6 2.4 88 0.8 CALM 0 6 0 3 1022.3 1023.2 0.2
 
Date/Time
EST
Temp
°C
App
Temp
°C
Dew
Point
Rel
Hum
%
Delta-T
°C
Wind Press
QNH
hPa
Press
MSL
hPa
Rain
since 9 am
mm
Dir
 
Spd
km/h
Gust
km/h
Spd
kts
Gust
kts
28/11:30pm 4.6 3.0 2.6 87 0.8 CALM 0 0 0 0 1022.5 1023.4 0.2
28/11:00pm 5.1 2.3 3.0 86 0.9 SSE 7 11 4 6 1022.8 1023.6 0.2
28/10:30pm 5.3 2.7 3.0 85 1.0 S 6 9 3 5 1022.9 1023.8 0.2
28/10:00pm 5.7 2.6 3.5 86 1.0 S 9 19 5 10 1023.0 1023.9 0.2
28/09:30pm 5.5 2.8 3.8 89 0.7 S 7 11 4 6 1023.1 1024.0 0.2
28/09:00pm 5.5 4.2 4.2 91 0.6 CALM 0 6 0 3 1023.2 1024.1 0.2
28/08:30pm 5.6 3.2 4.2 91 0.6 S 6 9 3 5 1023.1 1024.0 0.2
28/08:00pm 5.6 2.9 3.9 89 0.7 SSE 7 11 4 6 1023.1 1024.0 0.2
28/07:30pm 6.1 3.6 3.9 86 1.0 SSE 6 9 3 5 1022.9 1023.8 0.2
28/07:00pm 6.1 3.4 3.6 84 1.1 SSW 7 9 4 5 1022.6 1023.5 0.2
28/06:30pm 6.3 3.6 3.5 82 1.2 SSW 7 13 4 7 1022.4 1023.3 0.2
28/06:00pm 6.3 3.2 3.6 83 1.2 S 9 13 5 7 1022.3 1023.2 0.2
28/05:30pm 6.8 3.0 3.8 81 1.3 SSW 13 20 7 11 1022.1 1023.0 0.2
28/05:00pm 7.6 3.9 4.4 80 1.4 SSW 13 22 7 12 1021.7 1022.6 0.2
28/04:30pm 8.5 3.9 3.9 73 2.1 S 17 28 9 15 1021.5 1022.3 0.0
28/04:00pm 9.5 5.9 4.9 73 2.1 S 13 24 7 13 1021.0 1021.9 0.0
28/03:30pm 8.9 5.9 4.3 73 2.1 SSE 9 17 5 9 1021.2 1022.0 0.0
28/03:00pm 10.1 5.7 4.7 69 2.5 SSE 17 28 9 15 1021.2 1022.0 0.0
28/02:30pm 9.7 5.2 4.1 68 2.6 S 17 28 9 15 1021.4 1022.2 0.0
28/02:00pm 10.7 6.5 5.5 70 2.5 SSE 17 24 9 13 1021.5 1022.3 0.0
28/01:30pm 9.8 5.6 4.0 67 2.7 S 15 24 8 13 1021.5 1022.3 0.0
28/01:00pm 11.2 6.7 4.4 63 3.2 S 17 30 9 16 1021.5 1022.3 0.0
28/12:30pm 10.7 5.9 4.6 66 2.9 SSE 19 32 10 17 1021.7 1022.6 0.0
28/12:00pm 9.6 5.0 3.8 67 2.6 S 17 26 9 14 1022.2 1023.1 0.0
28/11:30am 9.5 4.9 3.7 67 2.6 SSW 17 28 9 15 1022.5 1023.4 0.0
28/11:00am 10.3 6.3 5.1 70 2.4 S 15 26 8 14 1022.5 1023.4 0.0
28/10:30am 9.4 4.5 4.2 70 2.4 SSE 19 30 10 16 1022.2 1023.1 0.0
28/10:00am 8.4 3.9 4.0 74 2.0 S 17 26 9 14 1022.2 1023.1 0.0
28/09:30am 7.2 3.0 3.6 78 1.6 S 15 24 8 13 1022.2 1023.1 0.0
28/09:00am 6.9 2.7 4.0 82 1.3 SSW 15 22 8 12 1022.1 1023.0 15.6
28/08:30am 6.3 2.5 4.0 85 1.0 S 13 20 7 11 1022.2 1023.1 15.6
28/08:00am 6.3 2.5 4.0 85 1.0 S 13 22 7 12 1021.9 1022.8 15.6
28/07:30am 6.3 3.3 4.1 86 1.0 SSW 9 17 5 9 1021.6 1022.4 15.6
28/07:00am 6.3 2.6 4.5 88 0.8 S 13 17 7 9 1021.2 1022.0 15.6
28/06:30am 6.1 2.8 4.6 90 0.7 SSW 11 17 6 9 1020.9 1021.8 15.6
28/06:00am 6.0 2.7 4.8 92 0.5 S 11 19 6 10 1020.5 1021.4 15.6
28/05:30am 5.9 2.2 4.7 92 0.5 S 13 22 7 12 1020.0 1020.8 15.6
28/05:00am 6.2 2.6 4.8 91 0.6 S 13 22 7 12 1019.7 1020.5 15.6
28/04:30am 6.2 1.8 4.8 91 0.6 S 17 28 9 15 1019.2 1020.1 15.6
28/04:00am 6.1 2.9 5.2 94 0.4 S 11 22 6 12 1018.9 1019.7 15.6
28/03:30am 6.2 3.0 5.3 94 0.4 S 11 17 6 9 1018.5 1019.3 15.6
28/03:00am 6.4 3.3 5.5 94 0.4 S 11 17 6 9 1018.5 1019.3 15.6
28/02:30am 6.4 3.0 5.7 95 0.3 SSW 13 20 7 11 1018.6 1019.4 15.6
28/02:00am 5.9 4.8 5.2 95 0.3 CALM 0 0 0 0 1018.8 1019.6 15.6
28/01:30am 5.9 4.8 5.2 95 0.3 CALM 0 0 0 0 1018.9 1019.7 15.4
28/01:00am 6.1 4.3 5.4 95 0.3 WSW 4 7 2 4 1018.9 1019.7 15.4
28/12:30am 6.2 4.4 5.3 94 0.4 SSW 4 6 2 3 1019.1 1019.9 15.2
28/12:00am 6.3 3.9 5.3 93 0.5 SSE 7 11 4 6 1019.1 1019.9 13.8
 
Date/Time
EST
Temp
°C
App
Temp
°C
Dew
Point
Rel
Hum
%
Delta-T
°C
Wind Press
QNH
hPa
Press
MSL
hPa
Rain
since 9 am
mm
Dir
 
Spd
km/h
Gust
km/h
Spd
kts
Gust
kts
27/11:30pm 6.4 4.2 5.2 92 0.6 S 6 9 3 5 1018.9 1019.7 12.4
27/11:00pm 6.8 4.6 5.4 91 0.6 S 6 9 3 5 1018.9 1019.7 12.0
27/10:30pm 6.6 3.8 5.2 91 0.6 SSE 9 15 5 8 1018.7 1019.5 12.0
27/10:00pm 6.7 5.3 5.3 91 0.6 S 2 6 1 3 1018.9 1019.7 12.0
27/09:30pm 6.9 4.7 5.4 90 0.7 SSE 6 9 3 5 1018.8 1019.6 12.0
27/09:00pm 7.0 4.6 5.2 88 0.8 SSE 7 9 4 5 1018.9 1019.7 12.0
27/08:30pm 7.0 4.2 5.0 87 0.9 S 9 17 5 9 1018.7 1019.5 12.0
27/08:00pm 6.6 3.3 4.8 88 0.8 SSE 11 20 6 11 1018.4 1019.2 12.0
27/07:30pm 7.2 4.2 6.0 92 0.6 SSE 11 19 6 10 1018.2 1019.0 12.0
27/07:00pm 7.6 4.3 6.2 91 0.7 SSE 13 19 7 10 1017.8 1018.6 12.0
27/06:30pm 7.8 4.5 6.3 90 0.7 SE 13 19 7 10 1017.5 1018.3 12.0
27/06:00pm 8.2 5.3 6.5 89 0.8 SSE 11 20 6 11 1017.1 1017.9 12.0
27/05:30pm 8.4 5.2 6.7 89 0.8 SE 13 20 7 11 1016.6 1017.3 12.0
27/05:00pm 8.9 6.6 7.5 91 0.7 SE 9 15 5 8 1016.2 1017.0 12.0
27/04:30pm 9.2 7.4 8.0 92 0.6 SE 7 15 4 8 1016.1 1016.9 12.0
27/04:00pm 8.9 6.3 7.7 92 0.6 SE 11 20 6 11 1016.1 1016.9 11.6
27/03:30pm 8.4 4.7 6.2 86 1.0 SW 15 24 8 13 1016.2 1017.0 10.2
27/03:00pm 10.5 10.0 7.7 83 1.4 CALM 0 0 0 0 1015.8 1016.6 6.2
27/02:30pm 10.2 7.8 6.9 80 1.6 S 9 11 5 6 1015.9 1016.7 6.0
27/02:00pm 11.6 9.3 5.7 67 2.8 SW 7 13 4 7 1016.1 1016.9 5.4
27/01:30pm 12.7 11.5 6.5 66 3.1 SE 2 9 1 5 1016.4 1017.2 5.4
27/01:00pm 12.5 10.3 6.3 66 3.1 NE 7 13 4 7 1016.7 1017.4 5.4
27/12:30pm 11.2 8.8 5.3 67 2.8 N 7 13 4 7 1017.2 1018.0 5.4
27/12:00pm 9.8 7.3 4.8 71 2.3 W 7 11 4 6 1017.7 1018.5 5.4
27/11:30am 9.4 8.6 8.2 92 0.6 E 2 9 1 5 1018.3 1019.1 5.4
27/11:00am 7.8 6.1 7.4 97 0.2 ESE 6 7 3 4 1019.3 1020.2 5.4
27/10:30am 6.4 3.8 6.0 97 0.2 WSW 9 20 5 11 1019.3 1020.2 5.0
27/10:00am 6.8 4.7 6.7 99 0.0 NNW 7 9 4 5 1019.9 1020.7 3.0
27/09:30am 6.6 5.0 6.3 98 0.1 NNW 4 7 2 4 1019.8 1020.6 1.8
27/09:00am 6.5 4.3 6.2 98 0.1 NNW 7 9 4 5 1019.9 1020.7 4.2
27/08:30am 6.5 5.6 6.2 98 0.1 CALM 0 6 0 3 1019.9 1020.7 2.8
27/08:00am 6.3 4.2 6.0 98 0.1 N 6 11 3 6 1019.8 1020.6 2.0
27/07:30am 5.9 3.6 5.6 98 0.1 NNW 7 11 4 6 1019.7 1020.5 1.6
27/07:00am 5.6 4.5 5.3 98 0.1 CALM 0 0 0 0 1019.2 1020.1 1.6
27/06:30am 5.6 4.5 5.3 98 0.1 CALM 0 0 0 0 1019.0 1019.8 1.6
27/06:00am 5.7 4.7 5.4 98 0.1 CALM 0 4 0 2 1018.8 1019.6 1.6
27/05:30am 5.8 4.0 5.5 98 0.1 SW 4 7 2 4 1018.9 1019.7 1.6
27/05:00am 5.8 4.0 5.5 98 0.1 E 4 7 2 4 1019.3 1020.2 1.6
27/04:30am 6.0 3.9 5.7 98 0.1 S 6 9 3 5 1019.2 1020.1 1.2
27/04:00am 6.1 5.1 5.7 97 0.2 CALM 0 0 0 0 1019.5 1020.4 1.2
27/03:30am 6.1 4.0 5.7 97 0.2 SE 6 7 3 4 1019.8 1020.6 1.2
27/03:00am 6.5 4.5 6.1 97 0.2 SSW 6 9 3 5 1020.1 1020.9 1.2
27/02:30am 6.6 4.6 6.2 97 0.2 SSW 6 9 3 5 1020.4 1021.3 1.2
27/02:00am 6.5 5.6 6.1 97 0.2 CALM 0 0 0 0 1021.0 1021.9 1.2
27/01:30am 6.5 5.6 6.1 97 0.2 CALM 0 0 0 0 1021.4 1022.2 1.2
27/01:00am 6.7 5.5 6.3 97 0.2 SSE 2 6 1 3 1021.7 1022.6 1.2
27/12:30am 6.9 6.1 6.5 97 0.2 CALM 0 0 0 0 1022.0 1022.9 1.2
27/12:00am 6.8 5.9 6.2 96 0.3 CALM 0 0 0 0 1022.3 1023.2 1.2
 
Date/Time
EST
Temp
°C
App
Temp
°C
Dew
Point
Rel
Hum
%
Delta-T
°C
Wind Press
QNH
hPa
Press
MSL
hPa
Rain
since 9 am
mm
Dir
 
Spd
km/h
Gust
km/h
Spd
kts
Gust
kts
26/11:30pm 6.8 4.8 6.2 96 0.3 SE 6 7 3 4 1022.4 1023.3 1.2
26/11:00pm 6.9 4.7 6.3 96 0.3 SSE 7 9 4 5 1022.6 1023.5 1.2
26/10:30pm 7.5 5.5 6.9 96 0.3 SSE 7 9 4 5 1023.3 1024.2 1.2
26/10:00pm 7.8 7.2 7.2 96 0.3 CALM 0 6 0 3 1023.7 1024.6 1.2
26/09:30pm 7.9 6.5 7.3 96 0.3 SE 4 7 2 4 1023.8 1024.7 1.2
26/09:00pm 7.9 6.1 7.1 95 0.4 SE 6 7 3 4 1023.9 1024.8 1.2
26/08:30pm 7.8 5.8 7.1 95 0.3 SSE 7 9 4 5 1023.9 1024.8 1.2
26/08:00pm 7.8 5.8 7.1 95 0.3 SSW 7 11 4 6 1023.9 1024.8 1.2
26/07:30pm 7.8 5.9 6.9 94 0.4 SSE 6 9 3 5 1023.9 1024.8 1.2
26/07:00pm 7.8 5.7 6.7 93 0.5 SSE 7 11 4 6 1023.8 1024.7 1.2
26/06:30pm 7.9 5.4 6.7 92 0.6 SSE 9 13 5 7 1023.7 1024.6 0.6
26/06:00pm 8.3 5.8 6.6 89 0.8 SSE 9 17 5 9 1023.6 1024.5 0.2
26/05:30pm 8.5 5.2 6.6 88 0.9 SSE 13 19 7 10 1023.5 1024.4 0.2

Other Formats:

Comma delimited format used in spreadsheet applications
http://www.bom.gov.au/fwo/IDV60801/IDV60801.94908.axf

JavaScript Object Notation format (JSON) in row-major order
http://www.bom.gov.au/fwo/IDV60801/IDV60801.94908.json